Wetterdaten für den Flughafen Lübeck Blankensee


ADDS - METARS form results Aviation Digital Data Service (ADDS) Output produced by METARs form (0639 UTC 23 February 2019)
found at http://www.aviationweather.gov/metar/data/
 
EDHL 230620Z 14003KT 100V180 CAVOK M01/M06 Q1043
TAF EDHL 230629Z 2306/2315 16005KT CAVOK

Nord: Hamburg, Lübeck
Ost: Schwerin, Rostock
Süd: Hannover
West: Bremen, Nordhloz

 

Copyright © 2016 Flugschule Hohensee